createdAt,value
2023-03-26T00:00:06.135Z,7.40
2023-03-26T00:04:13.848Z,8.50
2023-03-26T00:08:22.378Z,7.70
2023-03-26T00:12:30.013Z,7.20
2023-03-26T00:16:37.618Z,6.60
2023-03-26T00:20:45.801Z,6.80
2023-03-26T00:24:53.719Z,8.10
2023-03-26T00:29:03.970Z,7.80
2023-03-26T00:33:17.351Z,6.90
2023-03-26T00:37:26.648Z,7.40
2023-03-26T00:41:37.460Z,8.40
2023-03-26T00:45:44.929Z,8.00
2023-03-26T00:49:52.616Z,9.10
2023-03-26T00:54:00.909Z,7.50
2023-03-26T00:58:10.367Z,11.70
2023-03-26T01:02:21.184Z,8.00
2023-03-26T01:06:33.164Z,7.20
2023-03-26T01:10:42.265Z,7.00
2023-03-26T01:14:52.054Z,7.30
2023-03-26T01:19:00.971Z,8.70
2023-03-26T01:23:10.140Z,6.50
2023-03-26T01:27:25.843Z,9.10
2023-03-26T01:31:39.773Z,7.40
2023-03-26T01:35:51.414Z,8.40
2023-03-26T01:40:07.309Z,8.00
2023-03-26T01:44:21.188Z,8.20
2023-03-26T01:48:35.114Z,7.10
2023-03-26T01:52:42.981Z,6.80
2023-03-26T01:56:57.063Z,7.70
2023-03-26T02:01:12.885Z,9.60
2023-03-26T02:05:24.300Z,7.80
2023-03-26T02:09:35.056Z,7.50
2023-03-26T02:13:44.849Z,9.10
2023-03-26T02:17:53.563Z,7.60
2023-03-26T02:22:02.487Z,9.50
2023-03-26T02:26:12.221Z,7.30
2023-03-26T02:30:25.743Z,8.00
2023-03-26T02:34:33.800Z,10.10
2023-03-26T02:38:41.751Z,9.00
2023-03-26T02:42:49.632Z,9.20
2023-03-26T02:46:58.393Z,10.30
2023-03-26T02:51:07.797Z,7.30
2023-03-26T02:55:15.492Z,7.10
2023-03-26T02:59:23.397Z,8.80
2023-03-26T03:03:31.254Z,6.70
2023-03-26T03:07:39.195Z,7.90
2023-03-26T03:11:47.632Z,6.90
2023-03-26T03:15:56.541Z,8.20
2023-03-26T03:20:06.216Z,7.50
2023-03-26T03:24:14.109Z,6.80
2023-03-26T03:28:22.795Z,5.90
2023-03-26T03:32:30.819Z,5.80
2023-03-26T03:36:39.523Z,6.10
2023-03-26T03:40:47.601Z,5.80
2023-03-26T03:44:55.501Z,6.20
2023-03-26T03:49:03.996Z,4.60
2023-03-26T03:53:16.570Z,5.40
2023-03-26T03:57:24.385Z,5.20
2023-03-26T04:01:33.137Z,6.90
2023-03-26T04:05:41.311Z,4.70
2023-03-26T04:09:48.461Z,4.80
2023-03-26T04:13:56.050Z,6.00
2023-03-26T04:18:04.026Z,5.30
2023-03-26T04:22:12.225Z,6.40
2023-03-26T04:26:22.352Z,6.80
2023-03-26T04:30:31.691Z,5.10
2023-03-26T04:34:39.880Z,5.00
2023-03-26T04:38:49.383Z,5.10
2023-03-26T04:43:00.163Z,3.60
2023-03-26T04:47:08.073Z,3.30
2023-03-26T04:51:18.619Z,3.10
2023-03-26T04:55:27.716Z,4.30
2023-03-26T04:59:37.525Z,4.30
2023-03-26T05:03:46.066Z,2.90
2023-03-26T05:07:53.727Z,4.30
2023-03-26T05:12:01.490Z,3.80
2023-03-26T05:16:10.512Z,3.40
2023-03-26T05:20:22.048Z,6.90
2023-03-26T05:24:29.805Z,6.20
2023-03-26T05:28:37.345Z,6.30
2023-03-26T05:32:44.794Z,4.80
2023-03-26T05:36:53.169Z,6.70
2023-03-26T05:41:06.387Z,4.90
2023-03-26T05:45:16.707Z,4.90
2023-03-26T05:49:24.581Z,5.40
2023-03-26T05:53:32.866Z,6.50
2023-03-26T05:57:40.496Z,6.60
2023-03-26T06:01:51.227Z,6.30
2023-03-26T06:05:59.764Z,5.50
2023-03-26T06:10:09.652Z,4.80
2023-03-26T06:14:17.260Z,5.40
2023-03-26T06:18:25.731Z,5.70
2023-03-26T06:22:34.405Z,7.40
2023-03-26T06:26:42.278Z,7.40
2023-03-26T06:30:50.343Z,6.10
2023-03-26T06:34:58.241Z,5.70
2023-03-26T06:39:07.586Z,6.80
2023-03-26T06:43:16.083Z,6.20
2023-03-26T06:47:24.160Z,7.30
2023-03-26T06:51:32.292Z,6.40
2023-03-26T06:55:39.944Z,7.40
2023-03-26T06:59:48.632Z,7.40
2023-03-26T07:03:57.146Z,7.80
2023-03-26T07:08:08.407Z,5.60
2023-03-26T07:12:18.503Z,6.40
2023-03-26T07:16:28.738Z,7.10
2023-03-26T07:20:38.066Z,6.20
2023-03-26T07:24:47.949Z,7.10
2023-03-26T07:29:04.429Z,6.00
2023-03-26T07:33:16.376Z,7.10
2023-03-26T07:37:36.950Z,7.00
2023-03-26T07:41:48.004Z,5.10
2023-03-26T07:45:58.655Z,7.70
2023-03-26T07:50:09.969Z,4.40
2023-03-26T07:54:19.312Z,6.00
2023-03-26T07:58:41.408Z,7.20
2023-03-26T08:03:25.135Z,8.10
2023-03-26T08:07:45.271Z,11.90
2023-03-26T08:11:59.176Z,6.00
2023-03-26T08:16:12.812Z,7.00
2023-03-26T08:20:34.404Z,4.20
2023-03-26T08:24:49.434Z,4.70
2023-03-26T08:29:05.933Z,4.20
2023-03-26T08:33:20.804Z,5.50
2023-03-26T08:37:29.515Z,5.00
2023-03-26T08:42:12.769Z,5.90
2023-03-26T08:46:40.839Z,6.30
2023-03-26T08:51:08.014Z,5.60
2023-03-26T08:55:52.094Z,6.30
2023-03-26T09:04:51.811Z,5.50
2023-03-26T09:09:43.284Z,5.30
2023-03-26T09:14:23.093Z,4.90
2023-03-26T09:19:01.515Z,5.40
2023-03-26T09:23:28.152Z,6.00
2023-03-26T09:27:46.633Z,6.80
2023-03-26T09:32:31.478Z,5.80
2023-03-26T09:36:59.304Z,5.10
2023-03-26T09:41:12.487Z,5.60
2023-03-26T09:45:48.276Z,5.50
2023-03-26T09:50:04.204Z,4.20
2023-03-26T09:54:52.372Z,5.00
2023-03-26T09:59:32.124Z,5.10
2023-03-26T10:03:53.570Z,4.80
2023-03-26T10:08:13.025Z,5.10
2023-03-26T10:12:29.296Z,4.40
2023-03-26T10:16:46.506Z,4.70
2023-03-26T10:21:01.388Z,6.10
2023-03-26T10:25:27.466Z,4.40
2023-03-26T10:29:53.131Z,4.80
2023-03-26T10:34:28.687Z,5.10
2023-03-26T10:38:53.013Z,4.80
2023-03-26T10:44:05.544Z,5.70
2023-03-26T10:48:42.536Z,6.40
2023-03-26T10:52:53.945Z,6.20
2023-03-26T10:57:03.967Z,5.20
2023-03-26T11:01:20.412Z,6.80
2023-03-26T11:05:39.748Z,6.10
2023-03-26T11:09:52.985Z,6.40
2023-03-26T11:14:10.282Z,5.50
2023-03-26T11:18:21.080Z,7.50
2023-03-26T11:22:36.251Z,5.70
2023-03-26T11:26:53.248Z,7.00
2023-03-26T11:31:09.121Z,5.40
2023-03-26T11:35:40.400Z,11.10
2023-03-26T11:39:56.464Z,6.90
2023-03-26T11:44:08.936Z,5.50
2023-03-26T11:48:20.595Z,8.20
2023-03-26T11:52:29.156Z,7.50
2023-03-26T11:56:39.288Z,6.00
2023-03-26T12:00:49.377Z,5.90
2023-03-26T12:05:12.486Z,8.00
2023-03-26T12:09:21.395Z,6.80
2023-03-26T12:13:38.136Z,6.60
2023-03-26T12:17:52.625Z,6.50
2023-03-26T12:22:00.495Z,5.20
2023-03-26T12:26:22.484Z,4.80
2023-03-26T12:30:34.040Z,5.70
2023-03-26T12:34:41.934Z,5.70
2023-03-26T12:39:42.757Z,7.30
2023-03-26T12:44:52.999Z,6.40
2023-03-26T12:48:03.945Z,7.10
2023-03-26T12:52:33.266Z,6.60
2023-03-26T12:56:44.131Z,6.80
2023-03-26T13:00:57.045Z,6.20
2023-03-26T13:05:15.109Z,5.10
2023-03-26T13:09:41.611Z,6.60
2023-03-26T13:14:01.006Z,7.20
2023-03-26T13:18:21.663Z,6.80
2023-03-26T13:22:35.365Z,6.30
2023-03-26T13:26:53.362Z,6.90
2023-03-26T13:31:06.684Z,6.90
2023-03-26T13:35:31.575Z,6.00
2023-03-26T13:39:46.991Z,4.90
2023-03-26T13:44:04.100Z,7.60
2023-03-26T13:48:17.439Z,6.00
2023-03-26T13:52:28.294Z,6.60
2023-03-26T13:56:38.240Z,5.70
2023-03-26T14:00:56.332Z,10.00
2023-03-26T14:05:08.486Z,6.30
2023-03-26T14:09:20.993Z,7.90
2023-03-26T14:13:33.124Z,7.40
2023-03-26T14:17:47.114Z,5.80
2023-03-26T14:22:09.273Z,6.30
2023-03-26T14:26:27.258Z,6.00
2023-03-26T14:30:56.642Z,6.30
2023-03-26T14:35:13.611Z,7.10
2023-03-26T14:39:40.840Z,6.20
2023-03-26T14:44:20.137Z,5.60
2023-03-26T14:48:51.872Z,6.00
2023-03-26T14:53:02.965Z,6.00
2023-03-26T14:57:49.809Z,6.60
2023-03-26T15:02:30.320Z,7.30
2023-03-26T15:07:09.014Z,6.90
2023-03-26T15:11:23.023Z,7.80
2023-03-26T15:16:08.661Z,6.60
2023-03-26T15:20:34.766Z,5.80
2023-03-26T15:25:32.065Z,7.10
2023-03-26T15:29:57.012Z,8.00
2023-03-26T15:34:38.592Z,9.50
2023-03-26T15:39:24.797Z,5.00
2023-03-26T15:44:24.786Z,6.50
2023-03-26T15:48:35.701Z,6.30
2023-03-26T15:52:52.045Z,5.10
2023-03-26T15:57:20.404Z,3.80
2023-03-26T16:01:47.530Z,4.30
2023-03-26T16:06:15.915Z,4.60
2023-03-26T16:10:29.618Z,5.50
2023-03-26T16:14:46.123Z,5.20
2023-03-26T16:19:00.712Z,7.30
2023-03-26T16:23:11.737Z,7.00
2023-03-26T16:27:34.371Z,6.70
2023-03-26T16:32:05.829Z,11.90
2023-03-26T16:36:34.857Z,15.50
2023-03-26T16:40:58.298Z,17.30
2023-03-26T16:45:19.168Z,21.10
2023-03-26T16:49:34.403Z,18.20
2023-03-26T16:53:46.783Z,14.70
2023-03-26T16:57:59.633Z,16.60
2023-03-26T17:02:13.865Z,17.50
2023-03-26T17:06:31.223Z,16.10
2023-03-26T17:10:44.513Z,16.70
2023-03-26T17:15:06.263Z,14.70
2023-03-26T17:19:23.226Z,12.70
2023-03-26T17:23:39.627Z,12.30
2023-03-26T17:27:52.224Z,9.50
2023-03-26T17:32:09.498Z,10.20
2023-03-26T17:36:33.659Z,9.50
2023-03-26T17:40:55.066Z,9.70
2023-03-26T17:45:05.490Z,11.30
2023-03-26T17:49:19.532Z,9.40
2023-03-26T17:53:31.420Z,9.20
2023-03-26T17:57:44.493Z,11.30
2023-03-26T18:01:56.124Z,12.70
2023-03-26T18:06:08.843Z,10.90
2023-03-26T18:10:34.238Z,13.70
2023-03-26T18:15:02.864Z,13.20
2023-03-26T18:19:22.297Z,13.50
2023-03-26T18:23:36.283Z,13.60
2023-03-26T18:27:44.760Z,11.80
2023-03-26T18:31:57.933Z,16.20
2023-03-26T18:36:07.410Z,17.90
2023-03-26T18:40:19.711Z,14.10
2023-03-26T18:44:28.228Z,16.30
2023-03-26T18:48:36.447Z,17.10
2023-03-26T18:52:44.859Z,16.40
2023-03-26T18:56:53.341Z,15.60
2023-03-26T19:01:04.115Z,15.80
2023-03-26T19:05:17.038Z,14.70
2023-03-26T19:09:31.746Z,16.30
2023-03-26T19:13:43.327Z,15.30
2023-03-26T19:17:56.951Z,16.00
2023-03-26T19:22:05.556Z,20.00
2023-03-26T19:26:14.232Z,13.30
2023-03-26T19:30:29.648Z,12.40
2023-03-26T19:34:41.235Z,11.70
2023-03-26T19:38:54.267Z,14.10
2023-03-26T19:43:03.778Z,15.90
2023-03-26T19:47:21.208Z,18.50
2023-03-26T19:51:37.069Z,18.90
2023-03-26T19:55:52.131Z,16.60
2023-03-26T20:00:01.214Z,14.50
2023-03-26T20:04:11.725Z,15.10
2023-03-26T20:08:20.370Z,11.30
2023-03-26T20:12:28.736Z,13.70
2023-03-26T20:16:37.492Z,10.50
2023-03-26T20:20:45.197Z,10.50
2023-03-26T20:24:54.906Z,15.10
2023-03-26T20:29:05.991Z,13.80
2023-03-26T20:33:19.380Z,19.80
2023-03-26T20:37:27.631Z,19.00
2023-03-26T20:41:36.040Z,20.90
2023-03-26T20:45:44.918Z,19.90
2023-03-26T20:49:52.871Z,20.20
2023-03-26T20:54:00.727Z,18.30
2023-03-26T20:58:10.037Z,15.10
2023-03-26T21:02:18.159Z,15.70
2023-03-26T21:06:26.408Z,17.00
2023-03-26T21:10:36.519Z,18.20
2023-03-26T21:14:45.619Z,15.40
2023-03-26T21:18:55.332Z,12.30
2023-03-26T21:23:09.234Z,15.20
2023-03-26T21:27:26.432Z,14.80
2023-03-26T21:31:38.404Z,15.40
2023-03-26T21:35:52.029Z,13.50
2023-03-26T21:40:12.649Z,12.30
2023-03-26T21:44:22.135Z,15.40
2023-03-26T21:48:32.242Z,17.80
2023-03-26T21:52:51.187Z,15.30
2023-03-26T21:57:14.867Z,13.30
2023-03-26T22:01:29.485Z,13.90
2023-03-26T22:05:41.671Z,14.90
2023-03-26T22:09:50.854Z,11.80
2023-03-26T22:13:58.564Z,12.80
2023-03-26T22:18:07.579Z,14.40
2023-03-26T22:22:15.681Z,13.60
2023-03-26T22:26:25.268Z,15.60
2023-03-26T22:30:32.776Z,13.00
2023-03-26T22:34:41.535Z,15.30
2023-03-26T22:38:53.289Z,13.80
2023-03-26T22:43:02.413Z,12.90
2023-03-26T22:47:10.670Z,14.20
2023-03-26T22:51:18.878Z,12.10
2023-03-26T22:55:28.193Z,13.80
2023-03-26T22:59:37.185Z,12.70
2023-03-26T23:03:44.977Z,14.30
2023-03-26T23:07:53.024Z,14.00
2023-03-26T23:12:01.392Z,13.10
2023-03-26T23:16:11.300Z,13.80
2023-03-26T23:20:20.463Z,12.60
2023-03-26T23:24:28.338Z,13.80
2023-03-26T23:28:36.960Z,13.90
2023-03-26T23:32:45.032Z,13.40
2023-03-26T23:36:53.946Z,10.30
2023-03-26T23:41:02.128Z,15.00
2023-03-26T23:45:12.637Z,13.60
2023-03-26T23:49:22.065Z,14.70
2023-03-26T23:53:33.528Z,15.40
2023-03-26T23:57:42.221Z,12.20
